createdAt,value
2023-02-21T00:03:32.583Z,53.80
2023-02-21T00:08:52.930Z,53.36
2023-02-21T00:14:13.212Z,52.13
2023-02-21T00:19:34.274Z,51.85
2023-02-21T00:24:54.643Z,51.85
2023-02-21T00:30:15.180Z,52.04
2023-02-21T00:35:35.745Z,53.21
2023-02-21T00:40:56.539Z,54.60
2023-02-21T00:46:17.000Z,54.51
2023-02-21T00:51:37.396Z,54.51
2023-02-21T00:56:57.725Z,54.50
2023-02-21T01:02:18.089Z,54.50
2023-02-21T01:07:38.432Z,53.85
2023-02-21T01:13:00.283Z,53.53
2023-02-21T01:18:20.604Z,53.21
2023-02-21T01:23:41.042Z,52.73
2023-02-21T01:29:01.515Z,52.69
2023-02-21T01:34:21.692Z,52.72
2023-02-21T01:39:41.802Z,52.66
2023-02-21T01:45:04.392Z,52.66
2023-02-21T01:50:32.075Z,52.43
2023-02-21T01:55:57.523Z,52.69
2023-02-21T02:01:17.974Z,52.90
2023-02-21T02:06:38.840Z,52.88
2023-02-21T02:12:20.954Z,52.69
2023-02-21T02:17:41.459Z,52.60
2023-02-21T02:23:20.909Z,52.52
2023-02-21T02:28:44.412Z,52.58
2023-02-21T02:34:05.563Z,52.59
2023-02-21T02:39:10.357Z,52.46
2023-02-21T02:44:37.844Z,52.50
2023-02-21T02:49:43.128Z,52.46
2023-02-21T02:54:45.190Z,52.40
2023-02-21T02:59:47.837Z,52.47
2023-02-21T03:05:08.955Z,52.85
2023-02-21T03:10:25.398Z,53.26
2023-02-21T03:15:36.504Z,53.28
2023-02-21T03:20:40.036Z,53.45
2023-02-21T03:25:44.909Z,53.10
2023-02-21T03:30:52.216Z,53.05
2023-02-21T03:35:54.573Z,53.46
2023-02-21T03:40:56.639Z,53.30
2023-02-21T03:45:58.604Z,53.54
2023-02-21T03:51:03.348Z,53.23
2023-02-21T03:56:10.689Z,53.00
2023-02-21T04:01:47.860Z,53.13
2023-02-21T04:06:51.599Z,52.93
2023-02-21T04:11:53.988Z,52.76
2023-02-21T04:16:56.462Z,53.23
2023-02-21T04:21:58.395Z,53.27
2023-02-21T04:27:02.273Z,53.49
2023-02-21T04:32:07.637Z,53.68
2023-02-21T04:37:10.901Z,53.82
2023-02-21T04:42:12.718Z,53.64
2023-02-21T04:47:14.515Z,53.94
2023-02-21T04:52:16.369Z,53.95
2023-02-21T04:57:18.323Z,54.09
2023-02-21T05:02:20.161Z,54.09
2023-02-21T05:07:21.940Z,54.07
2023-02-21T05:12:23.726Z,53.95
2023-02-21T05:17:25.696Z,53.98
2023-02-21T05:22:27.520Z,53.85
2023-02-21T05:27:29.373Z,54.25
2023-02-21T05:32:31.212Z,53.98
2023-02-21T05:37:32.987Z,54.11
2023-02-21T05:42:34.781Z,54.23
2023-02-21T05:47:36.710Z,54.27
2023-02-21T05:52:38.525Z,54.37
2023-02-21T05:57:40.384Z,54.38
2023-02-21T06:02:42.163Z,54.28
2023-02-21T06:07:43.941Z,54.30
2023-02-21T06:12:45.862Z,54.54
2023-02-21T06:17:47.641Z,54.80
2023-02-21T06:22:49.640Z,55.12
2023-02-21T06:27:51.505Z,54.96
2023-02-21T06:32:53.259Z,54.95
2023-02-21T06:37:55.072Z,54.92
2023-02-21T06:42:56.836Z,54.72
2023-02-21T06:47:58.601Z,54.63
2023-02-21T06:53:00.776Z,54.57
2023-02-21T06:58:02.627Z,54.49
2023-02-21T07:03:04.472Z,54.65
2023-02-21T07:08:13.580Z,54.67
2023-02-21T07:13:15.449Z,54.79
2023-02-21T07:18:17.208Z,54.76
2023-02-21T07:23:18.991Z,54.97
2023-02-21T07:28:20.781Z,54.64
2023-02-21T07:33:22.737Z,54.84
2023-02-21T07:38:27.830Z,54.54
2023-02-21T07:43:31.274Z,55.10
2023-02-21T07:49:05.232Z,54.70
2023-02-21T07:54:06.999Z,54.71
2023-02-21T07:59:08.743Z,54.58
2023-02-21T08:04:10.498Z,54.89
2023-02-21T08:09:12.255Z,54.66
2023-02-21T08:14:14.073Z,54.85
2023-02-21T08:19:15.860Z,54.84
2023-02-21T08:24:19.136Z,55.19
2023-02-21T08:29:21.127Z,55.22
2023-02-21T08:34:24.791Z,55.33
2023-02-21T08:39:30.227Z,55.48
2023-02-21T08:44:32.000Z,55.40
2023-02-21T08:49:59.176Z,55.07
2023-02-21T08:55:00.995Z,54.98
2023-02-21T09:00:06.949Z,54.63
2023-02-21T09:05:15.753Z,54.64
2023-02-21T09:10:18.582Z,54.43
2023-02-21T09:15:20.889Z,54.21
2023-02-21T09:25:52.755Z,54.03
2023-02-21T09:31:19.377Z,53.84
2023-02-21T09:36:24.192Z,53.89
2023-02-21T09:41:58.338Z,53.88
2023-02-21T09:47:05.603Z,53.85
2023-02-21T09:58:01.147Z,53.58
2023-02-21T10:03:41.683Z,53.35
2023-02-21T10:08:43.403Z,53.62
2023-02-21T10:14:03.485Z,53.45
2023-02-21T10:19:15.252Z,53.58
2023-02-21T10:24:21.380Z,53.67
2023-02-21T10:29:26.437Z,53.69
2023-02-21T10:34:30.935Z,53.37
2023-02-21T10:39:44.515Z,53.04
2023-02-21T10:44:46.824Z,52.92
2023-02-21T10:55:31.909Z,52.16
2023-02-21T11:00:34.958Z,52.25
2023-02-21T11:05:38.426Z,51.95
2023-02-21T11:10:43.956Z,51.80
2023-02-21T11:15:46.213Z,52.03
2023-02-21T11:20:48.063Z,52.67
2023-02-21T11:25:56.756Z,51.79
2023-02-21T11:31:01.343Z,52.08
2023-02-21T11:36:18.567Z,52.04
2023-02-21T11:41:20.300Z,51.90
2023-02-21T11:46:30.904Z,52.05
2023-02-21T11:51:50.122Z,51.91
2023-02-21T11:57:09.520Z,51.79
2023-02-21T12:02:41.935Z,51.54
2023-02-21T12:08:05.256Z,51.59
2023-02-21T12:13:22.791Z,51.51
2023-02-21T12:18:42.213Z,51.56
2023-02-21T12:23:58.905Z,51.46
2023-02-21T12:29:21.518Z,51.24
2023-02-21T12:34:36.898Z,51.26
2023-02-21T12:39:56.163Z,50.82
2023-02-21T12:45:37.336Z,50.93
2023-02-21T12:50:43.864Z,50.90
2023-02-21T12:55:59.461Z,51.34
2023-02-21T13:01:12.060Z,51.66
2023-02-21T13:06:26.905Z,51.33
2023-02-21T13:11:50.014Z,51.52
2023-02-21T13:16:53.629Z,51.49
2023-02-21T13:22:51.049Z,51.71
2023-02-21T13:28:23.427Z,51.24
2023-02-21T13:33:49.457Z,51.38
2023-02-21T13:39:17.379Z,51.17
2023-02-21T13:44:27.321Z,51.42
2023-02-21T13:49:42.856Z,51.14
2023-02-21T13:55:15.511Z,51.58
2023-02-21T14:00:26.809Z,51.31
2023-02-21T14:06:00.936Z,51.00
2023-02-21T14:11:15.564Z,51.02
2023-02-21T14:16:23.327Z,51.42
2023-02-21T14:21:32.915Z,51.53
2023-02-21T14:26:34.626Z,51.16
2023-02-21T14:31:58.282Z,51.25
2023-02-21T14:37:06.165Z,51.17
2023-02-21T14:42:26.531Z,51.11
2023-02-21T14:47:49.808Z,51.19
2023-02-21T14:53:17.381Z,51.49
2023-02-21T14:58:44.452Z,51.15
2023-02-21T15:09:29.026Z,51.12
2023-02-21T15:20:07.732Z,51.35
2023-02-21T15:25:09.577Z,51.48
2023-02-21T15:30:14.459Z,51.68
2023-02-21T15:35:23.601Z,51.35
2023-02-21T15:40:26.786Z,51.93
2023-02-21T15:45:50.970Z,51.93
2023-02-21T15:50:53.402Z,51.72
2023-02-21T15:56:19.903Z,51.77
2023-02-21T16:01:22.598Z,51.88
2023-02-21T16:06:28.324Z,51.35
2023-02-21T16:22:59.701Z,52.42
2023-02-21T16:28:01.137Z,52.07
2023-02-21T16:33:05.645Z,51.95
2023-02-21T16:38:09.243Z,52.13
2023-02-21T16:43:26.835Z,52.15
2023-02-21T16:48:33.269Z,52.05
2023-02-21T16:53:35.218Z,52.25
2023-02-21T16:58:39.993Z,52.03
2023-02-21T17:03:42.449Z,52.21
2023-02-21T17:08:44.251Z,52.55
2023-02-21T17:13:46.904Z,52.62
2023-02-21T17:18:48.662Z,52.23
2023-02-21T17:23:50.518Z,52.62
2023-02-21T17:28:52.295Z,52.81
2023-02-21T17:33:54.730Z,52.38
2023-02-21T17:38:58.992Z,52.56
2023-02-21T17:44:00.904Z,52.47
2023-02-21T17:49:02.667Z,52.15
2023-02-21T17:54:04.616Z,52.10
2023-02-21T17:59:06.792Z,52.19
2023-02-21T18:04:09.231Z,51.84
2023-02-21T18:09:11.241Z,52.13
2023-02-21T18:14:13.041Z,51.99
2023-02-21T18:19:15.534Z,51.62
2023-02-21T18:24:18.917Z,51.79
2023-02-21T18:29:20.733Z,51.75
2023-02-21T18:34:22.689Z,51.58
2023-02-21T18:39:24.940Z,51.53
2023-02-21T18:44:26.712Z,51.43
2023-02-21T18:49:32.107Z,51.60
2023-02-21T18:54:34.364Z,51.86
2023-02-21T18:59:37.130Z,51.57
2023-02-21T19:04:43.595Z,51.57
2023-02-21T19:09:47.617Z,52.03
2023-02-21T19:14:49.822Z,51.77
2023-02-21T19:19:51.654Z,51.98
2023-02-21T19:24:53.436Z,51.69
2023-02-21T19:29:55.199Z,51.96
2023-02-21T19:34:57.018Z,51.92
2023-02-21T19:39:58.778Z,51.89
2023-02-21T19:45:00.648Z,51.66
2023-02-21T19:50:02.537Z,51.60
2023-02-21T19:55:04.714Z,51.72
2023-02-21T20:00:10.909Z,51.38
2023-02-21T20:05:14.250Z,51.67
2023-02-21T20:10:18.278Z,51.98
2023-02-21T20:15:20.250Z,51.83
2023-02-21T20:20:22.064Z,52.04
2023-02-21T20:25:24.499Z,52.16
2023-02-21T20:30:26.612Z,52.15
2023-02-21T20:35:29.700Z,52.11
2023-02-21T20:40:35.233Z,51.84
2023-02-21T20:45:38.522Z,51.93
2023-02-21T20:50:41.735Z,51.81
2023-02-21T20:55:43.606Z,51.62
2023-02-21T21:00:45.373Z,51.77
2023-02-21T21:05:48.235Z,51.89
2023-02-21T21:10:50.065Z,51.92
2023-02-21T21:15:52.272Z,51.62
2023-02-21T21:20:54.106Z,51.86
2023-02-21T21:25:56.889Z,51.64
2023-02-21T21:31:01.658Z,51.40
2023-02-21T21:36:03.765Z,51.37
2023-02-21T21:41:13.739Z,51.39
2023-02-21T21:46:15.651Z,51.25
2023-02-21T21:51:17.665Z,51.15
2023-02-21T21:56:23.064Z,50.99
2023-02-21T22:01:26.722Z,50.86
2023-02-21T22:06:28.475Z,51.11
2023-02-21T22:11:30.274Z,51.01
2023-02-21T22:16:40.278Z,50.90
2023-02-21T22:21:45.467Z,51.07
2023-02-21T22:26:47.259Z,50.99
2023-02-21T22:31:51.201Z,51.12
2023-02-21T22:36:57.769Z,51.30
2023-02-21T22:41:59.562Z,51.48
2023-02-21T22:47:01.344Z,52.08
2023-02-21T22:52:04.202Z,52.04
2023-02-21T22:57:07.321Z,52.11
2023-02-21T23:02:09.493Z,51.49
2023-02-21T23:07:11.251Z,51.61
2023-02-21T23:12:15.101Z,51.17
2023-02-21T23:17:17.829Z,51.25
2023-02-21T23:22:19.607Z,51.29
2023-02-21T23:27:21.369Z,51.57
2023-02-21T23:32:23.295Z,51.79
2023-02-21T23:37:25.127Z,51.73
2023-02-21T23:42:30.408Z,51.50
2023-02-21T23:47:32.209Z,51.75
2023-02-21T23:52:34.146Z,51.94
2023-02-21T23:57:37.227Z,51.72
